sensor_id;sensor_type;location;lat;lon;timestamp;pressure;altitude;pressure_sealevel;temperature;humidity
19761;BME280;10039;42.632;23.408;2023-02-22T00:01:10;94983.69;;;7.43;54.28
19761;BME280;10039;42.632;23.408;2023-02-22T00:03:50;94974.03;;;7.12;54.38
19761;BME280;10039;42.632;23.408;2023-02-22T00:06:18;95008.66;;;7.49;54.93
19761;BME280;10039;42.632;23.408;2023-02-22T00:08:46;95012.50;;;7.48;54.67
19761;BME280;10039;42.632;23.408;2023-02-22T00:11:12;94974.84;;;7.02;54.84
19761;BME280;10039;42.632;23.408;2023-02-22T00:13:39;95002.75;;;7.28;55.08
19761;BME280;10039;42.632;23.408;2023-02-22T00:16:08;95014.13;;;7.21;55.37
19761;BME280;10039;42.632;23.408;2023-02-22T00:18:37;94964.28;;;6.88;55.37
19761;BME280;10039;42.632;23.408;2023-02-22T00:21:03;95000.19;;;7.07;55.43
19761;BME280;10039;42.632;23.408;2023-02-22T00:23:30;94986.25;;;6.96;55.23
19761;BME280;10039;42.632;23.408;2023-02-22T00:25:57;94997.56;;;7.03;55.44
19761;BME280;10039;42.632;23.408;2023-02-22T00:28:23;95001.03;;;6.97;55.53
19761;BME280;10039;42.632;23.408;2023-02-22T00:30:49;95004.44;;;6.94;55.96
19761;BME280;10039;42.632;23.408;2023-02-22T00:33:15;94969.66;;;6.81;55.50
19761;BME280;10039;42.632;23.408;2023-02-22T00:35:43;94998.72;;;7.02;55.88
19761;BME280;10039;42.632;23.408;2023-02-22T00:38:11;94987.03;;;6.93;55.80
19761;BME280;10039;42.632;23.408;2023-02-22T00:40:37;94987.75;;;6.97;55.80
19761;BME280;10039;42.632;23.408;2023-02-22T00:43:05;94995.75;;;6.86;55.93
19761;BME280;10039;42.632;23.408;2023-02-22T00:45:32;94957.22;;;6.64;55.65
19761;BME280;10039;42.632;23.408;2023-02-22T00:47:58;94956.84;;;6.66;56.02
19761;BME280;10039;42.632;23.408;2023-02-22T00:50:26;94980.56;;;6.90;55.92
19761;BME280;10039;42.632;23.408;2023-02-22T00:52:53;94949.25;;;6.64;55.80
19761;BME280;10039;42.632;23.408;2023-02-22T00:55:29;94973.78;;;6.86;55.87
19761;BME280;10039;42.632;23.408;2023-02-22T00:57:54;94973.38;;;6.87;56.07
19761;BME280;10039;42.632;23.408;2023-02-22T01:00:23;94968.88;;;6.84;55.97
19761;BME280;10039;42.632;23.408;2023-02-22T01:02:50;94971.09;;;6.89;55.71
19761;BME280;10039;42.632;23.408;2023-02-22T01:05:20;94955.97;;;6.86;55.44
19761;BME280;10039;42.632;23.408;2023-02-22T01:07:47;94960.88;;;6.95;55.42
19761;BME280;10039;42.632;23.408;2023-02-22T01:10:12;94951.41;;;6.90;55.62
19761;BME280;10039;42.632;23.408;2023-02-22T01:12:38;94958.59;;;6.97;55.42
19761;BME280;10039;42.632;23.408;2023-02-22T01:15:06;94928.31;;;6.87;55.33
19761;BME280;10039;42.632;23.408;2023-02-22T01:17:35;94915.19;;;6.60;55.76
19761;BME280;10039;42.632;23.408;2023-02-22T01:20:01;94957.06;;;6.96;55.58
19761;BME280;10039;42.632;23.408;2023-02-22T01:22:26;94912.13;;;6.71;55.72
19761;BME280;10039;42.632;23.408;2023-02-22T01:24:52;94952.13;;;6.94;55.39
19761;BME280;10039;42.632;23.408;2023-02-22T01:27:19;94941.50;;;7.01;55.08
19761;BME280;10039;42.632;23.408;2023-02-22T01:29:47;94949.78;;;7.07;55.34
19761;BME280;10039;42.632;23.408;2023-02-22T01:32:13;94944.47;;;7.10;55.08
19761;BME280;10039;42.632;23.408;2023-02-22T01:34:38;94953.09;;;7.21;54.79
19761;BME280;10039;42.632;23.408;2023-02-22T01:37:04;94945.91;;;7.18;55.15
19761;BME280;10039;42.632;23.408;2023-02-22T01:39:31;94940.63;;;7.18;55.22
19761;BME280;10039;42.632;23.408;2023-02-22T01:41:56;94938.72;;;7.19;55.02
19761;BME280;10039;42.632;23.408;2023-02-22T01:44:30;94940.28;;;7.13;54.80
19761;BME280;10039;42.632;23.408;2023-02-22T01:46:57;94938.03;;;7.11;54.97
19761;BME280;10039;42.632;23.408;2023-02-22T01:49:25;94952.69;;;7.30;54.77
19761;BME280;10039;42.632;23.408;2023-02-22T01:51:55;94917.13;;;7.17;54.25
19761;BME280;10039;42.632;23.408;2023-02-22T01:54:34;94947.31;;;7.40;54.00
19761;BME280;10039;42.632;23.408;2023-02-22T01:57:15;94940.50;;;7.36;54.34
19761;BME280;10039;42.632;23.408;2023-02-22T01:59:45;94949.53;;;7.45;54.19
19761;BME280;10039;42.632;23.408;2023-02-22T02:02:13;94948.50;;;7.32;54.70
19761;BME280;10039;42.632;23.408;2023-02-22T02:04:39;94945.16;;;7.21;54.77
19761;BME280;10039;42.632;23.408;2023-02-22T02:07:08;94949.00;;;7.13;54.67
19761;BME280;10039;42.632;23.408;2023-02-22T02:09:41;94928.63;;;6.96;54.88
19761;BME280;10039;42.632;23.408;2023-02-22T02:12:10;94929.44;;;6.86;55.40
19761;BME280;10039;42.632;23.408;2023-02-22T02:14:37;94939.28;;;6.93;55.18
19761;BME280;10039;42.632;23.408;2023-02-22T02:17:06;94937.75;;;6.92;55.49
19761;BME280;10039;42.632;23.408;2023-02-22T02:22:54;94955.97;;;6.86;55.62
19761;BME280;10039;42.632;23.408;2023-02-22T02:36:29;94963.47;;;6.98;54.96
19761;BME280;10039;42.632;23.408;2023-02-22T02:39:26;94965.75;;;7.03;55.30
19761;BME280;10039;42.632;23.408;2023-02-22T02:41:53;94971.75;;;7.11;54.69
19761;BME280;10039;42.632;23.408;2023-02-22T02:44:26;94979.38;;;7.02;55.13
19761;BME280;10039;42.632;23.408;2023-02-22T02:46:59;94974.78;;;7.13;55.08
19761;BME280;10039;42.632;23.408;2023-02-22T02:49:30;94978.13;;;7.20;54.91
19761;BME280;10039;42.632;23.408;2023-02-22T02:51:59;94967.16;;;7.18;54.74
19761;BME280;10039;42.632;23.408;2023-02-22T02:54:27;94981.84;;;7.33;54.30
19761;BME280;10039;42.632;23.408;2023-02-22T02:56:55;94974.63;;;7.34;54.04
19761;BME280;10039;42.632;23.408;2023-02-22T02:59:32;94956.59;;;7.08;53.55
19761;BME280;10039;42.632;23.408;2023-02-22T03:07:41;94985.59;;;6.71;55.80
19761;BME280;10039;42.632;23.408;2023-02-22T03:18:52;94981.25;;;6.05;58.07
19761;BME280;10039;42.632;23.408;2023-02-22T03:21:32;94973.69;;;6.04;58.12
19761;BME280;10039;42.632;23.408;2023-02-22T03:24:50;94969.16;;;6.04;58.20
19761;BME280;10039;42.632;23.408;2023-02-22T03:27:02;94976.72;;;5.95;58.15
19761;BME280;10039;42.632;23.408;2023-02-22T03:29:30;94972.56;;;5.94;58.10
19761;BME280;10039;42.632;23.408;2023-02-22T03:32:02;94983.50;;;6.07;58.13
19761;BME280;10039;42.632;23.408;2023-02-22T03:34:36;94981.25;;;6.09;58.02
19761;BME280;10039;42.632;23.408;2023-02-22T03:37:11;94971.75;;;6.11;57.92
19761;BME280;10039;42.632;23.408;2023-02-22T03:39:39;94983.88;;;6.12;58.01
19761;BME280;10039;42.632;23.408;2023-02-22T03:42:08;94980.84;;;6.21;57.79
19761;BME280;10039;42.632;23.408;2023-02-22T03:44:39;94978.19;;;6.21;57.47
19761;BME280;10039;42.632;23.408;2023-02-22T03:47:10;94975.16;;;6.22;57.86
19761;BME280;10039;42.632;23.408;2023-02-22T03:49:42;94977.03;;;6.25;57.55
19761;BME280;10039;42.632;23.408;2023-02-22T03:52:10;94971.00;;;6.18;57.68
19761;BME280;10039;42.632;23.408;2023-02-22T03:54:38;94966.09;;;6.20;57.66
19761;BME280;10039;42.632;23.408;2023-02-22T03:57:08;94978.94;;;6.28;57.33
19761;BME280;10039;42.632;23.408;2023-02-22T03:59:36;94949.44;;;6.12;57.53
19761;BME280;10039;42.632;23.408;2023-02-22T04:02:02;94971.72;;;6.36;57.89
19761;BME280;10039;42.632;23.408;2023-02-22T04:04:27;94955.13;;;6.18;57.28
19761;BME280;10039;42.632;23.408;2023-02-22T04:06:53;94947.88;;;6.29;57.33
19761;BME280;10039;42.632;23.408;2023-02-22T04:09:19;94961.50;;;6.34;57.20
19761;BME280;10039;42.632;23.408;2023-02-22T04:11:45;94962.59;;;6.47;57.09
19761;BME280;10039;42.632;23.408;2023-02-22T04:14:11;94975.09;;;6.47;57.29
19761;BME280;10039;42.632;23.408;2023-02-22T04:16:36;94974.72;;;6.45;57.33
19761;BME280;10039;42.632;23.408;2023-02-22T04:19:02;94984.19;;;6.46;57.47
19761;BME280;10039;42.632;23.408;2023-02-22T04:21:27;94959.56;;;6.49;56.77
19761;BME280;10039;42.632;23.408;2023-02-22T04:23:53;94987.50;;;6.70;56.94
19761;BME280;10039;42.632;23.408;2023-02-22T04:26:18;94988.25;;;6.74;56.45
19761;BME280;10039;42.632;23.408;2023-02-22T04:28:43;94965.56;;;6.60;56.24
19761;BME280;10039;42.632;23.408;2023-02-22T04:31:09;94956.13;;;6.48;56.46
19761;BME280;10039;42.632;23.408;2023-02-22T04:33:34;94989.34;;;6.77;56.11
19761;BME280;10039;42.632;23.408;2023-02-22T04:36:01;94992.72;;;6.88;55.95
19761;BME280;10039;42.632;23.408;2023-02-22T04:38:26;94991.16;;;6.97;55.89
19761;BME280;10039;42.632;23.408;2023-02-22T04:40:53;94991.56;;;6.92;55.46
19761;BME280;10039;42.632;23.408;2023-02-22T04:43:18;94999.88;;;6.94;55.52
19761;BME280;10039;42.632;23.408;2023-02-22T04:45:44;94995.75;;;6.86;55.41
19761;BME280;10039;42.632;23.408;2023-02-22T04:48:09;95000.75;;;6.70;55.62
19761;BME280;10039;42.632;23.408;2023-02-22T04:50:35;95002.28;;;6.68;56.29
19761;BME280;10039;42.632;23.408;2023-02-22T04:53:01;94992.06;;;6.66;55.64
19761;BME280;10039;42.632;23.408;2023-02-22T04:55:27;94990.22;;;6.50;56.03
19761;BME280;10039;42.632;23.408;2023-02-22T04:57:53;94990.94;;;6.54;56.34
19761;BME280;10039;42.632;23.408;2023-02-22T05:00:19;94968.28;;;6.46;56.18
19761;BME280;10039;42.632;23.408;2023-02-22T05:02:48;94969.84;;;6.26;56.28
19761;BME280;10039;42.632;23.408;2023-02-22T05:05:15;94987.59;;;6.39;56.36
19761;BME280;10039;42.632;23.408;2023-02-22T05:07:42;94991.00;;;6.47;56.62
19761;BME280;10039;42.632;23.408;2023-02-22T05:10:08;94984.94;;;6.43;56.02
19761;BME280;10039;42.632;23.408;2023-02-22T05:12:34;94995.91;;;6.52;56.37
19761;BME280;10039;42.632;23.408;2023-02-22T05:15:00;95000.41;;;6.55;56.24
19761;BME280;10039;42.632;23.408;2023-02-22T05:17:26;95008.38;;;6.55;56.17
19761;BME280;10039;42.632;23.408;2023-02-22T05:19:51;95000.78;;;6.57;55.81
19761;BME280;10039;42.632;23.408;2023-02-22T05:22:17;95004.22;;;6.57;55.48
19761;BME280;10039;42.632;23.408;2023-02-22T05:24:42;95006.06;;;6.63;55.83
19761;BME280;10039;42.632;23.408;2023-02-22T05:27:08;95001.53;;;6.61;55.63
19761;BME280;10039;42.632;23.408;2023-02-22T05:29:34;94987.25;;;6.30;55.76
19761;BME280;10039;42.632;23.408;2023-02-22T05:31:59;95025.44;;;6.43;55.99
19761;BME280;10039;42.632;23.408;2023-02-22T05:34:27;95025.09;;;6.38;55.29
19761;BME280;10039;42.632;23.408;2023-02-22T05:36:52;95006.22;;;6.01;56.52
19761;BME280;10039;42.632;23.408;2023-02-22T05:39:17;95018.28;;;6.23;56.49
19761;BME280;10039;42.632;23.408;2023-02-22T05:41:43;95038.38;;;6.10;56.53
19761;BME280;10039;42.632;23.408;2023-02-22T05:44:08;95020.22;;;5.98;57.14
19761;BME280;10039;42.632;23.408;2023-02-22T05:46:33;95036.09;;;6.12;56.95
19761;BME280;10039;42.632;23.408;2023-02-22T05:48:59;95025.50;;;5.77;57.59
19761;BME280;10039;42.632;23.408;2023-02-22T05:51:28;95038.00;;;5.83;58.14
19761;BME280;10039;42.632;23.408;2023-02-22T05:53:53;95000.91;;;5.76;57.67
19761;BME280;10039;42.632;23.408;2023-02-22T05:56:23;95037.25;;;6.04;57.72
19761;BME280;10039;42.632;23.408;2023-02-22T05:58:48;95038.75;;;6.05;57.68
19761;BME280;10039;42.632;23.408;2023-02-22T06:01:14;95033.47;;;6.12;57.47
19761;BME280;10039;42.632;23.408;2023-02-22T06:03:39;95047.47;;;6.16;57.48
19761;BME280;10039;42.632;23.408;2023-02-22T06:06:05;95044.81;;;5.95;58.10
19761;BME280;10039;42.632;23.408;2023-02-22T06:08:31;95047.47;;;5.88;58.88
19761;BME280;10039;42.632;23.408;2023-02-22T06:10:56;95045.94;;;6.01;58.47
19761;BME280;10039;42.632;23.408;2023-02-22T06:13:21;95044.81;;;6.16;58.03
19761;BME280;10039;42.632;23.408;2023-02-22T06:15:47;95041.78;;;6.21;58.17
19761;BME280;10039;42.632;23.408;2023-02-22T06:18:12;95050.09;;;6.02;59.29
19761;BME280;10039;42.632;23.408;2023-02-22T06:20:37;95039.50;;;6.09;58.92
19761;BME280;10039;42.632;23.408;2023-02-22T06:23:03;95012.28;;;6.12;58.64
19761;BME280;10039;42.632;23.408;2023-02-22T06:25:29;95016.81;;;6.15;59.66
19761;BME280;10039;42.632;23.408;2023-02-22T06:27:56;95022.09;;;6.18;59.86
19761;BME280;10039;42.632;23.408;2023-02-22T06:30:23;95022.84;;;6.15;60.16
19761;BME280;10039;42.632;23.408;2023-02-22T06:32:49;95030.38;;;6.38;59.90
19761;BME280;10039;42.632;23.408;2023-02-22T06:35:15;95031.50;;;6.51;59.15
19761;BME280;10039;42.632;23.408;2023-02-22T06:37:41;94993.66;;;6.33;59.01
19761;BME280;10039;42.632;23.408;2023-02-22T06:40:07;95042.00;;;6.75;58.70
19761;BME280;10039;42.632;23.408;2023-02-22T06:42:32;95040.81;;;6.86;58.69
19761;BME280;10039;42.632;23.408;2023-02-22T06:44:58;95025.25;;;6.95;58.28
19761;BME280;10039;42.632;23.408;2023-02-22T06:47:23;95036.19;;;7.11;58.01
19761;BME280;10039;42.632;23.408;2023-02-22T06:49:56;95033.06;;;7.30;57.53
19761;BME280;10039;42.632;23.408;2023-02-22T06:52:22;95042.81;;;7.51;57.23
19761;BME280;10039;42.632;23.408;2023-02-22T06:54:49;95013.53;;;7.61;56.83
19761;BME280;10039;42.632;23.408;2023-02-22T06:57:15;95035.31;;;7.89;56.51
19761;BME280;10039;42.632;23.408;2023-02-22T06:59:40;95033.31;;;8.04;56.63
19761;BME280;10039;42.632;23.408;2023-02-22T07:02:06;95013.09;;;8.13;55.69
19761;BME280;10039;42.632;23.408;2023-02-22T07:04:31;95038.13;;;8.60;55.32
19761;BME280;10039;42.632;23.408;2023-02-22T07:06:58;95022.47;;;8.69;55.02
19761;BME280;10039;42.632;23.408;2023-02-22T07:09:23;95031.66;;;8.94;54.40
19761;BME280;10039;42.632;23.408;2023-02-22T07:11:49;95046.19;;;9.19;53.40
19761;BME280;10039;42.632;23.408;2023-02-22T07:14:17;95045.44;;;9.45;52.43
19761;BME280;10039;42.632;23.408;2023-02-22T07:16:43;95037.66;;;9.58;51.58
19761;BME280;10039;42.632;23.408;2023-02-22T07:19:08;95019.34;;;9.63;51.53
19761;BME280;10039;42.632;23.408;2023-02-22T07:21:34;95043.19;;;9.97;51.98
19761;BME280;10039;42.632;23.408;2023-02-22T07:23:59;95051.69;;;10.14;51.70
19761;BME280;10039;42.632;23.408;2023-02-22T07:26:25;95047.25;;;10.31;50.80
19761;BME280;10039;42.632;23.408;2023-02-22T07:28:51;95048.69;;;10.35;49.62
19761;BME280;10039;42.632;23.408;2023-02-22T07:31:17;95043.53;;;10.25;50.69
19761;BME280;10039;42.632;23.408;2023-02-22T07:33:45;95050.81;;;10.44;51.16
19761;BME280;10039;42.632;23.408;2023-02-22T07:36:10;94999.78;;;10.42;50.18
19761;BME280;10039;42.632;23.408;2023-02-22T07:38:37;95044.13;;;10.78;49.52
19761;BME280;10039;42.632;23.408;2023-02-22T07:41:03;95027.88;;;10.89;50.04
19761;BME280;10039;42.632;23.408;2023-02-22T07:43:29;95018.50;;;11.00;49.81
19761;BME280;10039;42.632;23.408;2023-02-22T07:45:58;95022.19;;;11.25;48.72
19761;BME280;10039;42.632;23.408;2023-02-22T07:48:26;95033.06;;;11.34;50.30
19761;BME280;10039;42.632;23.408;2023-02-22T07:50:52;95033.09;;;11.50;48.62
19761;BME280;10039;42.632;23.408;2023-02-22T07:53:20;95039.66;;;11.65;48.55
19761;BME280;10039;42.632;23.408;2023-02-22T07:55:46;95027.84;;;11.98;48.47
19761;BME280;10039;42.632;23.408;2023-02-22T07:58:18;95029.69;;;12.17;47.86
19761;BME280;10039;42.632;23.408;2023-02-22T08:00:43;95016.78;;;12.28;47.99
19761;BME280;10039;42.632;23.408;2023-02-22T08:03:11;95027.66;;;12.53;47.37
19761;BME280;10039;42.632;23.408;2023-02-22T08:05:39;95012.09;;;12.48;46.70
19761;BME280;10039;42.632;23.408;2023-02-22T08:08:06;95021.69;;;12.61;46.41
19761;BME280;10039;42.632;23.408;2023-02-22T08:10:32;95026.47;;;12.54;45.46
19761;BME280;10039;42.632;23.408;2023-02-22T08:12:59;95022.63;;;12.55;46.59
19761;BME280;10039;42.632;23.408;2023-02-22T08:15:45;95019.41;;;12.76;46.93
19761;BME280;10039;42.632;23.408;2023-02-22T08:18:15;95016.34;;;12.90;46.99
19761;BME280;10039;42.632;23.408;2023-02-22T08:20:43;95013.59;;;12.77;46.80
19761;BME280;10039;42.632;23.408;2023-02-22T08:23:10;94997.94;;;12.92;46.19
19761;BME280;10039;42.632;23.408;2023-02-22T08:25:35;95011.00;;;12.90;45.63
19761;BME280;10039;42.632;23.408;2023-02-22T08:28:07;95012.56;;;12.87;44.45
19761;BME280;10039;42.632;23.408;2023-02-22T08:30:34;95003.09;;;12.99;46.24
19761;BME280;10039;42.632;23.408;2023-02-22T08:33:00;95008.28;;;13.18;45.86
19761;BME280;10039;42.632;23.408;2023-02-22T08:35:30;95009.16;;;13.28;44.91
19761;BME280;10039;42.632;23.408;2023-02-22T08:38:04;95003.41;;;13.42;46.27
19761;BME280;10039;42.632;23.408;2023-02-22T08:40:32;94999.69;;;13.51;45.25
19761;BME280;10039;42.632;23.408;2023-02-22T08:42:58;95001.59;;;13.51;44.02
19761;BME280;10039;42.632;23.408;2023-02-22T08:45:24;94992.38;;;13.52;44.75
19761;BME280;10039;42.632;23.408;2023-02-22T08:47:49;94998.25;;;13.59;44.07
19761;BME280;10039;42.632;23.408;2023-02-22T08:50:21;94996.75;;;13.58;44.23
19761;BME280;10039;42.632;23.408;2023-02-22T08:52:52;95000.00;;;13.53;44.60
19761;BME280;10039;42.632;23.408;2023-02-22T08:55:20;94979.41;;;13.50;45.29
19761;BME280;10039;42.632;23.408;2023-02-22T08:57:45;94992.91;;;13.59;45.42
19761;BME280;10039;42.632;23.408;2023-02-22T09:00:11;94989.34;;;13.75;44.30
19761;BME280;10039;42.632;23.408;2023-02-22T09:02:37;94979.59;;;13.68;43.95
19761;BME280;10039;42.632;23.408;2023-02-22T09:05:02;94979.56;;;13.93;45.23
19761;BME280;10039;42.632;23.408;2023-02-22T09:07:30;94976.56;;;13.91;43.57
19761;BME280;10039;42.632;23.408;2023-02-22T09:09:55;94983.56;;;13.76;43.69
19761;BME280;10039;42.632;23.408;2023-02-22T09:12:21;94987.00;;;13.64;43.62
19761;BME280;10039;42.632;23.408;2023-02-22T09:14:46;94982.69;;;13.54;44.24
19761;BME280;10039;42.632;23.408;2023-02-22T09:17:11;94973.91;;;13.42;44.20
19761;BME280;10039;42.632;23.408;2023-02-22T09:19:37;94952.69;;;13.35;44.43
19761;BME280;10039;42.632;23.408;2023-02-22T09:22:02;94985.63;;;13.47;44.63
19761;BME280;10039;42.632;23.408;2023-02-22T09:24:28;94963.06;;;13.33;44.38
19761;BME280;10039;42.632;23.408;2023-02-22T09:26:53;94967.38;;;13.43;44.26
19761;BME280;10039;42.632;23.408;2023-02-22T09:29:21;94973.81;;;13.57;43.95
19761;BME280;10039;42.632;23.408;2023-02-22T09:31:52;94945.81;;;13.46;43.35
19761;BME280;10039;42.632;23.408;2023-02-22T09:34:20;94966.19;;;13.68;43.46
19761;BME280;10039;42.632;23.408;2023-02-22T09:36:47;94966.41;;;13.74;43.34
19761;BME280;10039;42.632;23.408;2023-02-22T09:39:17;94955.16;;;13.66;44.02
19761;BME280;10039;42.632;23.408;2023-02-22T09:41:53;94967.81;;;13.66;43.85
19761;BME280;10039;42.632;23.408;2023-02-22T09:47:01;94957.28;;;13.71;43.30
19761;BME280;10039;42.632;23.408;2023-02-22T09:49:31;94968.03;;;13.71;43.32
19761;BME280;10039;42.632;23.408;2023-02-22T09:52:42;94962.53;;;13.75;44.04
19761;BME280;10039;42.632;23.408;2023-02-22T09:57:39;94948.50;;;13.83;42.85
19761;BME280;10039;42.632;23.408;2023-02-22T10:00:16;94940.50;;;13.92;42.25
19761;BME280;10039;42.632;23.408;2023-02-22T10:03:09;94946.31;;;13.91;42.85
19761;BME280;10039;42.632;23.408;2023-02-22T10:05:42;94933.09;;;13.96;42.58
19761;BME280;10039;42.632;23.408;2023-02-22T10:08:13;94929.25;;;13.97;43.09
19761;BME280;10039;42.632;23.408;2023-02-22T10:10:45;94930.84;;;14.07;43.19
19761;BME280;10039;42.632;23.408;2023-02-22T10:13:43;94922.91;;;14.16;42.96
19761;BME280;10039;42.632;23.408;2023-02-22T10:18:55;94918.03;;;14.24;42.10
19761;BME280;10039;42.632;23.408;2023-02-22T10:26:49;94908.75;;;14.37;41.55
19761;BME280;10039;42.632;23.408;2023-02-22T10:31:55;94898.41;;;14.48;41.80
19761;BME280;10039;42.632;23.408;2023-02-22T10:34:28;94879.22;;;14.37;41.56
19761;BME280;10039;42.632;23.408;2023-02-22T10:36:59;94887.28;;;14.37;41.44
19761;BME280;10039;42.632;23.408;2023-02-22T10:39:34;94874.03;;;14.43;41.38
19761;BME280;10039;42.632;23.408;2023-02-22T10:42:03;94870.53;;;14.55;41.02
19761;BME280;10039;42.632;23.408;2023-02-22T10:44:35;94865.59;;;14.53;40.91
19761;BME280;10039;42.632;23.408;2023-02-22T10:47:04;94868.34;;;14.62;41.43
19761;BME280;10039;42.632;23.408;2023-02-22T10:49:41;94843.50;;;14.49;41.19
19761;BME280;10039;42.632;23.408;2023-02-22T10:52:20;94859.47;;;14.74;41.26
19761;BME280;10039;42.632;23.408;2023-02-22T10:54:49;94855.94;;;14.86;40.80
19761;BME280;10039;42.632;23.408;2023-02-22T10:57:24;94847.88;;;14.86;40.18
19761;BME280;10039;42.632;23.408;2023-02-22T10:59:50;94847.31;;;14.91;39.75
19761;BME280;10039;42.632;23.408;2023-02-22T11:02:28;94835.19;;;14.86;40.52
19761;BME280;10039;42.632;23.408;2023-02-22T11:04:56;94841.16;;;14.81;40.83
19761;BME280;10039;42.632;23.408;2023-02-22T11:09:53;94840.34;;;15.02;41.15
19761;BME280;10039;42.632;23.408;2023-02-22T11:12:29;94836.78;;;15.05;40.12
19761;BME280;10039;42.632;23.408;2023-02-22T11:14:56;94827.34;;;15.01;40.45
19761;BME280;10039;42.632;23.408;2023-02-22T11:17:29;94800.91;;;14.99;40.03
19761;BME280;10039;42.632;23.408;2023-02-22T11:19:56;94834.19;;;15.32;39.68
19761;BME280;10039;42.632;23.408;2023-02-22T11:22:28;94815.84;;;15.31;39.88
19761;BME280;10039;42.632;23.408;2023-02-22T11:24:58;94825.44;;;15.41;39.60
19761;BME280;10039;42.632;23.408;2023-02-22T11:27:36;94819.00;;;15.47;39.75
19761;BME280;10039;42.632;23.408;2023-02-22T11:32:47;94818.56;;;15.49;40.03
19761;BME280;10039;42.632;23.408;2023-02-22T11:35:32;94800.63;;;15.37;39.16
19761;BME280;10039;42.632;23.408;2023-02-22T11:40:45;94803.03;;;15.53;39.79
19761;BME280;10039;42.632;23.408;2023-02-22T11:43:17;94804.84;;;15.65;39.28
19761;BME280;10039;42.632;23.408;2023-02-22T11:46:00;94804.53;;;15.63;39.00
19761;BME280;10039;42.632;23.408;2023-02-22T11:48:28;94799.16;;;15.63;38.51
19761;BME280;10039;42.632;23.408;2023-02-22T11:51:07;94800.38;;;15.71;38.05
19761;BME280;10039;42.632;23.408;2023-02-22T12:20:39;94740.84;;;15.77;38.95
19761;BME280;10039;42.632;23.408;2023-02-22T12:23:19;94753.72;;;15.91;38.92
19761;BME280;10039;42.632;23.408;2023-02-22T12:26:08;94762.09;;;16.02;38.72
19761;BME280;10039;42.632;23.408;2023-02-22T12:28:39;94742.19;;;16.00;38.83
19761;BME280;10039;42.632;23.408;2023-02-22T12:31:20;94743.69;;;16.01;38.21
19761;BME280;10039;42.632;23.408;2023-02-22T12:34:12;94751.78;;;16.10;37.89
19761;BME280;10039;42.632;23.408;2023-02-22T12:36:47;94747.41;;;16.12;37.50
19761;BME280;10039;42.632;23.408;2023-02-22T12:42:20;94744.13;;;16.17;37.73
19761;BME280;10039;42.632;23.408;2023-02-22T12:44:52;94743.50;;;16.22;37.57
19761;BME280;10039;42.632;23.408;2023-02-22T12:47:22;94732.13;;;16.27;37.32
19761;BME280;10039;42.632;23.408;2023-02-22T12:50:06;94720.78;;;16.23;37.13
19761;BME280;10039;42.632;23.408;2023-02-22T12:52:54;94735.75;;;16.33;37.23
19761;BME280;10039;42.632;23.408;2023-02-22T12:55:30;94732.72;;;16.31;37.77
19761;BME280;10039;42.632;23.408;2023-02-22T13:09:30;94725.09;;;16.39;37.15
19761;BME280;10039;42.632;23.408;2023-02-22T13:12:24;94725.56;;;16.37;37.02
19761;BME280;10039;42.632;23.408;2023-02-22T13:15:15;94727.59;;;16.51;37.16
19761;BME280;10039;42.632;23.408;2023-02-22T13:25:57;94716.03;;;16.60;36.39
19761;BME280;10039;42.632;23.408;2023-02-22T13:28:35;94718.44;;;16.58;36.46
19761;BME280;10039;42.632;23.408;2023-02-22T13:53:52;94709.44;;;16.61;36.51
19761;BME280;10039;42.632;23.408;2023-02-22T13:56:21;94715.44;;;16.65;36.17
19761;BME280;10039;42.632;23.408;2023-02-22T13:58:53;94710.94;;;16.62;35.73
19761;BME280;10039;42.632;23.408;2023-02-22T14:01:58;94702.44;;;16.54;36.17
19761;BME280;10039;42.632;23.408;2023-02-22T14:09:50;94713.03;;;16.67;36.36
19761;BME280;10039;42.632;23.408;2023-02-22T14:15:20;94693.78;;;16.50;36.36
19761;BME280;10039;42.632;23.408;2023-02-22T14:17:48;94705.25;;;16.60;36.68
19761;BME280;10039;42.632;23.408;2023-02-22T14:20:37;94682.00;;;16.30;36.66
19761;BME280;10039;42.632;23.408;2023-02-22T14:23:38;94716.22;;;16.56;37.01
19761;BME280;10039;42.632;23.408;2023-02-22T14:28:47;94713.53;;;16.56;36.81
19761;BME280;10039;42.632;23.408;2023-02-22T14:31:17;94699.75;;;16.54;36.62
19761;BME280;10039;42.632;23.408;2023-02-22T14:34:03;94707.81;;;16.63;36.70
19761;BME280;10039;42.632;23.408;2023-02-22T14:39:15;94696.31;;;16.54;36.68
19761;BME280;10039;42.632;23.408;2023-02-22T14:41:47;94698.84;;;16.57;36.52
19761;BME280;10039;42.632;23.408;2023-02-22T14:44:20;94698.84;;;16.57;36.59
19761;BME280;10039;42.632;23.408;2023-02-22T14:46:47;94687.16;;;16.60;36.73
19761;BME280;10039;42.632;23.408;2023-02-22T14:49:19;94686.91;;;16.49;37.30
19761;BME280;10039;42.632;23.408;2023-02-22T14:51:59;94690.78;;;16.48;37.00
19761;BME280;10039;42.632;23.408;2023-02-22T14:54:48;94689.66;;;16.40;36.98
19761;BME280;10039;42.632;23.408;2023-02-22T14:57:26;94696.50;;;16.41;37.52
19761;BME280;10039;42.632;23.408;2023-02-22T14:59:59;94699.84;;;16.36;37.30
19761;BME280;10039;42.632;23.408;2023-02-22T15:02:26;94696.50;;;16.41;37.62
19761;BME280;10039;42.632;23.408;2023-02-22T15:04:53;94663.03;;;16.15;37.54
19761;BME280;10039;42.632;23.408;2023-02-22T15:07:26;94680.38;;;16.23;37.31
19761;BME280;10039;42.632;23.408;2023-02-22T15:10:18;94702.06;;;16.38;37.10
19761;BME280;10039;42.632;23.408;2023-02-22T15:12:57;94699.81;;;16.27;36.77
19761;BME280;10039;42.632;23.408;2023-02-22T15:15:34;94690.56;;;16.19;36.52
19761;BME280;10039;42.632;23.408;2023-02-22T15:18:00;94691.94;;;16.15;36.72
19761;BME280;10039;42.632;23.408;2023-02-22T15:20:29;94698.03;;;16.24;36.29
19761;BME280;10039;42.632;23.408;2023-02-22T15:22:58;94699.06;;;16.27;36.31
19761;BME280;10039;42.632;23.408;2023-02-22T15:25:27;94695.34;;;16.24;36.43
19761;BME280;10039;42.632;23.408;2023-02-22T15:27:53;94692.94;;;16.26;36.32